createdAt,value
2023-10-13T00:04:06.829Z,6.07
2023-10-13T00:14:34.276Z,6.00
2023-10-13T00:24:43.851Z,5.55
2023-10-13T00:34:46.702Z,5.20
2023-10-13T00:44:50.888Z,6.00
2023-10-13T00:54:55.198Z,5.18
2023-10-13T01:04:59.429Z,5.50
2023-10-13T01:15:12.215Z,5.68
2023-10-13T01:25:20.563Z,6.57
2023-10-13T01:35:27.772Z,7.18
2023-10-13T01:45:32.310Z,7.30
2023-10-13T01:55:43.905Z,7.75
2023-10-13T02:05:49.615Z,7.88
2023-10-13T02:15:58.215Z,7.63
2023-10-13T02:26:11.734Z,8.15
2023-10-13T02:36:23.206Z,7.88
2023-10-13T02:46:30.385Z,7.38
2023-10-13T02:56:33.217Z,8.50
2023-10-13T03:06:41.322Z,9.30
2023-10-13T03:16:44.571Z,9.18
2023-10-13T03:26:53.395Z,8.57
2023-10-13T03:36:59.504Z,8.95
2023-10-13T03:47:19.404Z,9.43
2023-10-13T03:57:22.761Z,9.82
2023-10-13T04:08:01.852Z,9.60
2023-10-13T04:18:15.212Z,9.57
2023-10-13T04:28:35.597Z,9.88
2023-10-13T04:38:57.150Z,9.82
2023-10-13T04:49:08.574Z,9.85
2023-10-13T04:59:19.343Z,9.60
2023-10-13T05:09:41.621Z,8.23
2023-10-13T05:20:20.291Z,8.60
2023-10-13T05:30:38.333Z,7.63
2023-10-13T05:41:23.461Z,7.65
2023-10-13T05:51:47.945Z,7.63
2023-10-13T06:02:08.831Z,8.07
2023-10-13T06:12:27.046Z,7.03
2023-10-13T06:22:47.725Z,7.68
2023-10-13T06:32:52.154Z,7.30
2023-10-13T06:42:56.741Z,6.63
2023-10-13T06:53:03.036Z,6.70
2023-10-13T07:03:19.047Z,6.72
2023-10-13T07:13:23.838Z,6.80
2023-10-13T07:23:26.688Z,6.07
2023-10-13T07:33:32.163Z,6.07
2023-10-13T07:43:35.342Z,5.75
2023-10-13T07:53:41.608Z,5.80
2023-10-13T08:03:48.164Z,5.70
2023-10-13T08:14:07.644Z,5.20
2023-10-13T08:24:16.723Z,5.00
2023-10-13T08:34:25.440Z,4.90
2023-10-13T08:54:51.189Z,5.32
2023-10-13T09:05:11.060Z,5.10
2023-10-13T09:15:35.427Z,4.97
2023-10-13T09:25:54.974Z,5.18
2023-10-13T09:36:01.293Z,5.50
2023-10-13T09:46:08.380Z,4.72
2023-10-13T09:56:24.753Z,4.90
2023-10-13T10:06:36.975Z,5.03
2023-10-13T10:17:02.003Z,5.07
2023-10-13T10:27:07.099Z,4.65
2023-10-13T10:37:11.661Z,4.95
2023-10-13T10:47:20.790Z,4.57
2023-10-13T10:57:31.610Z,4.28
2023-10-13T11:07:37.579Z,4.75
2023-10-13T11:17:50.025Z,4.60
2023-10-13T11:28:00.787Z,5.13
2023-10-13T11:38:14.996Z,4.55
2023-10-13T11:48:18.260Z,5.15
2023-10-13T11:58:23.549Z,5.32
2023-10-13T12:08:34.307Z,4.47
2023-10-13T12:18:39.041Z,4.32
2023-10-13T12:28:51.847Z,4.80
2023-10-13T12:39:13.908Z,5.15
2023-10-13T12:49:38.147Z,4.93
2023-10-13T12:59:48.364Z,4.88
2023-10-13T13:09:58.931Z,4.47
2023-10-13T13:20:12.083Z,4.35
2023-10-13T13:30:15.570Z,5.40
2023-10-13T13:40:23.372Z,4.97
2023-10-13T13:50:30.150Z,4.72
2023-10-13T14:00:39.622Z,4.05
2023-10-13T14:10:57.274Z,4.88
2023-10-13T14:21:05.030Z,4.60
2023-10-13T14:31:10.839Z,4.82
2023-10-13T14:41:15.635Z,4.30
2023-10-13T14:51:21.923Z,4.47
2023-10-13T15:01:28.151Z,4.28
2023-10-13T15:11:44.236Z,4.78
2023-10-13T15:21:54.148Z,4.88
2023-10-13T15:32:27.100Z,4.32
2023-10-13T15:42:32.306Z,4.18
2023-10-13T15:52:35.545Z,4.32
2023-10-13T16:02:44.033Z,4.05
2023-10-13T16:12:52.900Z,3.92
2023-10-13T16:23:00.096Z,4.78
2023-10-13T16:33:06.294Z,4.25
2023-10-13T16:43:13.452Z,4.72
2023-10-13T16:53:17.119Z,4.53
2023-10-13T17:03:30.451Z,4.90
2023-10-13T17:13:39.214Z,4.85
2023-10-13T17:23:43.925Z,6.18
2023-10-13T17:33:49.660Z,5.57
2023-10-13T17:43:54.551Z,6.82
2023-10-13T17:54:04.641Z,5.05
2023-10-13T18:04:11.941Z,5.18
2023-10-13T18:14:20.889Z,5.47
2023-10-13T18:24:26.457Z,5.05
2023-10-13T18:34:30.245Z,5.10
2023-10-13T18:44:34.698Z,4.50
2023-10-13T18:54:37.978Z,4.55
2023-10-13T19:04:43.316Z,4.88
2023-10-13T19:14:46.351Z,4.80
2023-10-13T19:24:51.029Z,4.68
2023-10-13T19:34:53.914Z,4.38
2023-10-13T19:45:02.274Z,4.10
2023-10-13T19:55:08.604Z,4.00
2023-10-13T20:05:13.200Z,4.35
2023-10-13T20:15:17.119Z,4.50
2023-10-13T20:25:25.021Z,4.30
2023-10-13T20:35:28.180Z,4.45
2023-10-13T20:45:38.229Z,4.40
2023-10-13T20:55:41.477Z,4.85
2023-10-13T21:05:49.948Z,4.55
2023-10-13T21:15:52.913Z,4.82
2023-10-13T21:25:57.424Z,5.10
2023-10-13T21:36:14.315Z,5.30
2023-10-13T21:46:19.307Z,5.00
2023-10-13T21:56:25.446Z,5.43
2023-10-13T22:06:30.073Z,5.32
2023-10-13T22:16:34.430Z,5.13
2023-10-13T22:26:38.805Z,4.85
2023-10-13T22:36:51.643Z,4.60
2023-10-13T22:47:04.593Z,5.07
2023-10-13T22:57:07.404Z,4.40
2023-10-13T23:07:18.236Z,3.63
2023-10-13T23:17:22.074Z,3.60
2023-10-13T23:27:26.303Z,3.95
2023-10-13T23:37:32.393Z,4.32
2023-10-13T23:47:47.713Z,4.40
2023-10-13T23:57:52.310Z,5.68
